createdAt,value
2022-07-26T00:00:28.837Z,53.75
2022-07-26T00:02:55.658Z,53.30
2022-07-26T00:05:22.617Z,53.23
2022-07-26T00:07:49.365Z,53.18
2022-07-26T00:10:16.295Z,53.40
2022-07-26T00:12:43.129Z,53.44
2022-07-26T00:15:11.647Z,53.61
2022-07-26T00:17:39.297Z,53.75
2022-07-26T00:20:07.391Z,54.09
2022-07-26T00:22:34.287Z,54.50
2022-07-26T00:25:03.709Z,54.55
2022-07-26T00:27:30.796Z,54.44
2022-07-26T00:29:57.480Z,54.30
2022-07-26T00:32:24.196Z,54.54
2022-07-26T00:34:51.716Z,54.51
2022-07-26T00:37:20.457Z,54.51
2022-07-26T00:39:48.123Z,54.81
2022-07-26T00:42:14.873Z,54.42
2022-07-26T00:44:44.137Z,54.36
2022-07-26T00:47:12.271Z,53.98
2022-07-26T00:49:39.096Z,54.27
2022-07-26T00:52:07.027Z,54.28
2022-07-26T00:54:34.363Z,54.08
2022-07-26T00:57:01.283Z,53.75
2022-07-26T00:59:28.619Z,53.72
2022-07-26T01:01:55.658Z,54.04
2022-07-26T01:04:22.674Z,53.63
2022-07-26T01:06:50.132Z,53.81
2022-07-26T01:09:18.473Z,54.13
2022-07-26T01:11:45.980Z,54.08
2022-07-26T01:14:14.740Z,54.13
2022-07-26T01:16:46.434Z,54.08
2022-07-26T01:19:15.430Z,54.20
2022-07-26T01:21:48.309Z,54.65
2022-07-26T01:24:16.654Z,54.77
2022-07-26T01:26:43.617Z,54.68
2022-07-26T01:29:10.852Z,54.76
2022-07-26T01:31:37.787Z,54.57
2022-07-26T01:34:04.739Z,54.78
2022-07-26T01:36:31.695Z,54.87
2022-07-26T01:38:59.343Z,54.80
2022-07-26T01:41:37.436Z,55.06
2022-07-26T01:44:07.554Z,55.39
2022-07-26T01:46:36.100Z,55.55
2022-07-26T01:49:04.016Z,56.25
2022-07-26T01:51:30.988Z,56.09
2022-07-26T01:53:57.749Z,56.32
2022-07-26T01:56:24.496Z,56.21
2022-07-26T01:58:51.348Z,56.72
2022-07-26T02:01:38.729Z,57.00
2022-07-26T02:04:05.219Z,57.13
2022-07-26T02:06:32.988Z,57.08
2022-07-26T02:09:01.850Z,57.28
2022-07-26T02:11:28.807Z,57.26
2022-07-26T02:13:55.988Z,56.92
2022-07-26T02:16:22.832Z,56.69
2022-07-26T02:18:49.615Z,56.78
2022-07-26T02:21:16.319Z,57.55
2022-07-26T02:23:43.493Z,57.68
2022-07-26T02:26:10.289Z,57.80
2022-07-26T02:28:36.937Z,58.17
2022-07-26T02:31:03.691Z,58.24
2022-07-26T02:33:30.595Z,58.17
2022-07-26T02:35:57.664Z,58.37
2022-07-26T02:38:25.140Z,58.40
2022-07-26T02:40:52.916Z,58.51
2022-07-26T02:43:19.982Z,58.78
2022-07-26T02:46:00.940Z,58.84
2022-07-26T02:48:32.546Z,58.89
2022-07-26T02:50:59.554Z,58.75
2022-07-26T02:53:26.415Z,59.18
2022-07-26T02:55:53.129Z,59.47
2022-07-26T02:58:22.756Z,59.13
2022-07-26T03:00:49.416Z,59.39
2022-07-26T03:03:16.464Z,59.60
2022-07-26T03:05:43.421Z,59.42
2022-07-26T03:08:10.284Z,59.74
2022-07-26T03:10:36.975Z,59.69
2022-07-26T03:13:03.695Z,59.56
2022-07-26T03:15:30.559Z,59.33
2022-07-26T03:17:57.346Z,59.52
2022-07-26T03:20:24.820Z,59.91
2022-07-26T03:22:51.552Z,59.93
2022-07-26T03:25:18.253Z,59.72
2022-07-26T03:27:45.029Z,59.66
2022-07-26T03:30:12.330Z,58.97
2022-07-26T03:32:39.316Z,58.68
2022-07-26T03:35:07.245Z,58.23
2022-07-26T03:37:46.031Z,57.86
2022-07-26T03:40:17.354Z,57.69
2022-07-26T03:42:45.361Z,58.25
2022-07-26T03:45:14.061Z,57.66
2022-07-26T03:47:41.149Z,57.43
2022-07-26T03:50:08.984Z,57.39
2022-07-26T03:52:35.682Z,57.50
2022-07-26T03:55:22.403Z,57.46
2022-07-26T03:57:49.372Z,57.46
2022-07-26T04:00:16.206Z,57.34
2022-07-26T04:02:43.142Z,57.32
2022-07-26T04:05:10.966Z,56.94
2022-07-26T04:07:52.625Z,56.83
2022-07-26T04:10:21.574Z,56.35
2022-07-26T04:12:49.155Z,56.75
2022-07-26T04:15:17.215Z,56.64
2022-07-26T04:17:44.115Z,56.74
2022-07-26T04:20:12.558Z,56.86
2022-07-26T04:22:42.123Z,56.43
2022-07-26T04:25:10.075Z,56.34
2022-07-26T04:27:37.728Z,56.42
2022-07-26T04:30:12.362Z,56.10
2022-07-26T04:32:41.479Z,56.17
2022-07-26T04:35:08.708Z,56.20
2022-07-26T04:37:40.282Z,56.19
2022-07-26T04:40:08.402Z,56.01
2022-07-26T04:42:35.525Z,56.00
2022-07-26T04:45:08.009Z,55.67
2022-07-26T04:47:37.526Z,55.61
2022-07-26T04:50:04.909Z,55.30
2022-07-26T04:52:31.649Z,55.10
2022-07-26T04:55:00.575Z,54.58
2022-07-26T04:57:27.223Z,54.70
2022-07-26T05:00:16.843Z,54.31
2022-07-26T05:02:41.064Z,54.45
2022-07-26T05:05:08.614Z,54.27
2022-07-26T05:07:46.886Z,54.44
2022-07-26T05:10:15.724Z,53.82
2022-07-26T05:12:42.576Z,53.66
2022-07-26T05:15:13.691Z,53.62
2022-07-26T05:17:43.091Z,53.37
2022-07-26T05:20:12.391Z,53.28
2022-07-26T05:22:39.276Z,53.37
2022-07-26T05:25:07.225Z,52.69
2022-07-26T05:27:33.939Z,52.30
2022-07-26T05:30:00.804Z,52.53
2022-07-26T05:32:30.361Z,52.31
2022-07-26T05:34:57.139Z,52.45
2022-07-26T05:37:23.841Z,52.16
2022-07-26T05:39:50.615Z,52.27
2022-07-26T05:42:17.333Z,52.23
2022-07-26T05:44:44.065Z,51.93
2022-07-26T05:47:11.619Z,51.51
2022-07-26T05:49:40.090Z,51.31
2022-07-26T05:52:08.802Z,50.77
2022-07-26T05:54:36.189Z,50.99
2022-07-26T05:57:03.609Z,50.99
2022-07-26T05:59:30.497Z,50.39
2022-07-26T06:01:57.510Z,50.51
2022-07-26T06:04:26.624Z,50.16
2022-07-26T06:06:55.071Z,50.39
2022-07-26T06:09:24.375Z,50.33
2022-07-26T06:11:51.712Z,49.78
2022-07-26T06:14:19.531Z,49.26
2022-07-26T06:16:47.272Z,49.36
2022-07-26T06:19:14.329Z,49.31
2022-07-26T06:21:42.742Z,49.46
2022-07-26T06:24:09.933Z,49.18
2022-07-26T06:26:37.152Z,49.41
2022-07-26T06:29:04.413Z,48.25
2022-07-26T06:31:31.368Z,48.07
2022-07-26T06:33:58.104Z,46.43
2022-07-26T06:36:28.665Z,45.32
2022-07-26T06:38:57.887Z,44.47
2022-07-26T06:41:24.860Z,43.99
2022-07-26T06:43:51.852Z,43.45
2022-07-26T06:46:20.925Z,44.10
2022-07-26T06:48:52.515Z,43.02
2022-07-26T06:51:19.659Z,42.57
2022-07-26T06:53:46.575Z,42.40
2022-07-26T06:56:15.063Z,41.10
2022-07-26T06:58:42.857Z,40.46
2022-07-26T07:01:09.989Z,39.34
2022-07-26T07:03:36.922Z,37.63
2022-07-26T07:06:04.228Z,36.78
2022-07-26T07:08:31.032Z,36.09
2022-07-26T07:11:00.942Z,34.79
2022-07-26T07:13:29.646Z,34.22
2022-07-26T07:15:56.360Z,33.20
2022-07-26T07:18:23.408Z,32.78
2022-07-26T07:20:50.314Z,32.65
2022-07-26T07:23:17.016Z,31.50
2022-07-26T07:25:44.756Z,34.09
2022-07-26T07:28:11.778Z,35.09
2022-07-26T07:30:38.459Z,35.52
2022-07-26T07:33:05.489Z,35.20
2022-07-26T07:35:32.866Z,35.51
2022-07-26T07:37:59.749Z,36.22
2022-07-26T07:40:26.918Z,36.87
2022-07-26T07:42:53.623Z,37.07
2022-07-26T07:45:20.455Z,36.87
2022-07-26T07:47:47.372Z,34.47
2022-07-26T07:50:14.099Z,31.97
2022-07-26T07:52:40.931Z,33.09
2022-07-26T07:55:36.590Z,33.05
2022-07-26T07:57:55.150Z,34.51
2022-07-26T08:00:27.201Z,35.25
2022-07-26T08:02:55.338Z,35.97
2022-07-26T08:05:22.231Z,36.80
2022-07-26T08:07:49.866Z,37.31
2022-07-26T08:10:19.899Z,38.52
2022-07-26T08:12:51.637Z,38.68
2022-07-26T08:15:19.401Z,38.90
2022-07-26T08:17:51.088Z,39.51
2022-07-26T08:20:21.027Z,39.46
2022-07-26T08:22:50.842Z,39.18
2022-07-26T08:25:17.704Z,39.54
2022-07-26T08:27:55.096Z,39.30
2022-07-26T08:30:29.765Z,38.78
2022-07-26T08:32:56.722Z,39.16
2022-07-26T08:35:23.950Z,39.28
2022-07-26T08:37:50.935Z,39.03
2022-07-26T08:40:18.088Z,36.75
2022-07-26T08:42:52.972Z,34.83
2022-07-26T08:45:24.784Z,33.96
2022-07-26T08:48:16.149Z,32.00
2022-07-26T08:50:40.884Z,33.02
2022-07-26T08:53:09.531Z,31.04
2022-07-26T08:58:28.285Z,32.53
2022-07-26T09:01:05.281Z,32.52
2022-07-26T09:03:32.618Z,30.66
2022-07-26T09:06:21.085Z,30.53
2022-07-26T09:08:51.192Z,30.41
2022-07-26T09:11:23.909Z,30.48
2022-07-26T09:13:53.240Z,33.03
2022-07-26T09:16:20.008Z,32.96
2022-07-26T09:18:46.856Z,33.32
2022-07-26T09:21:29.778Z,33.70
2022-07-26T09:23:56.983Z,34.81
2022-07-26T09:26:27.115Z,35.04
2022-07-26T09:29:12.439Z,33.83
2022-07-26T09:31:39.925Z,34.65
2022-07-26T09:34:08.287Z,35.03
2022-07-26T09:36:51.780Z,34.48
2022-07-26T09:39:33.609Z,34.81
2022-07-26T09:42:28.602Z,33.34
2022-07-26T09:44:57.680Z,34.29
2022-07-26T09:47:37.152Z,34.75
2022-07-26T09:50:15.944Z,34.71
2022-07-26T09:53:07.577Z,34.36
2022-07-26T09:55:55.907Z,34.82
2022-07-26T09:58:24.132Z,34.73
2022-07-26T10:00:51.455Z,34.08
2022-07-26T10:03:18.568Z,33.29
2022-07-26T10:05:46.972Z,32.22
2022-07-26T10:08:14.464Z,31.41
2022-07-26T10:10:44.041Z,30.54
2022-07-26T10:13:11.823Z,30.11
2022-07-26T10:15:44.558Z,29.67
2022-07-26T10:18:39.012Z,29.22
2022-07-26T10:21:25.242Z,29.95
2022-07-26T10:24:02.680Z,30.31
2022-07-26T10:26:32.302Z,30.65
2022-07-26T10:29:26.688Z,30.01
2022-07-26T10:32:02.693Z,31.52
2022-07-26T10:34:35.196Z,31.10
2022-07-26T10:37:09.460Z,30.90
2022-07-26T10:39:37.388Z,30.59
2022-07-26T10:42:09.334Z,30.58
2022-07-26T10:44:44.991Z,30.96
2022-07-26T10:47:18.919Z,29.81
2022-07-26T10:49:56.048Z,29.99
2022-07-26T10:52:32.033Z,29.85
2022-07-26T10:55:03.268Z,29.09
2022-07-26T10:57:39.300Z,28.33
2022-07-26T11:00:31.057Z,26.96
2022-07-26T11:03:00.074Z,27.96
2022-07-26T11:05:33.676Z,27.74
2022-07-26T11:08:10.801Z,28.20
2022-07-26T11:10:45.898Z,28.55
2022-07-26T11:13:23.914Z,28.70
2022-07-26T11:15:54.300Z,28.51
2022-07-26T11:18:27.779Z,28.37
2022-07-26T11:20:56.740Z,27.87
2022-07-26T11:23:36.396Z,28.10
2022-07-26T11:26:19.374Z,27.35
2022-07-26T11:28:59.868Z,28.07
2022-07-26T11:31:52.066Z,28.02
2022-07-26T11:34:24.474Z,28.69
2022-07-26T11:36:53.478Z,29.00
2022-07-26T11:39:38.473Z,29.09
2022-07-26T11:42:07.950Z,30.55
2022-07-26T11:44:35.306Z,30.01
2022-07-26T11:47:12.624Z,30.48
2022-07-26T11:52:31.253Z,30.00
2022-07-26T11:54:58.325Z,30.13
2022-07-26T11:57:32.177Z,28.90
2022-07-26T12:00:00.632Z,30.60
2022-07-26T12:02:38.509Z,30.62
2022-07-26T12:05:21.182Z,30.50
2022-07-26T12:07:58.280Z,30.86
2022-07-26T12:10:25.244Z,29.97
2022-07-26T12:13:13.812Z,31.13
2022-07-26T12:15:52.521Z,30.71
2022-07-26T12:18:28.104Z,30.82
2022-07-26T12:21:08.428Z,30.37
2022-07-26T12:23:44.166Z,30.52
2022-07-26T12:26:28.492Z,30.41
2022-07-26T12:29:27.507Z,29.09
2022-07-26T12:32:03.026Z,30.06
2022-07-26T12:34:30.438Z,30.17
2022-07-26T12:37:17.764Z,32.15
2022-07-26T12:40:10.305Z,29.85
2022-07-26T12:42:42.224Z,30.08
2022-07-26T12:45:11.580Z,30.66
2022-07-26T12:47:43.619Z,29.58
2022-07-26T12:50:13.056Z,30.04
2022-07-26T12:52:40.610Z,29.96
2022-07-26T12:55:10.309Z,29.78
2022-07-26T12:57:37.236Z,30.05
2022-07-26T13:00:05.879Z,29.67
2022-07-26T13:02:32.801Z,29.25
2022-07-26T13:05:01.701Z,29.52
2022-07-26T13:07:28.457Z,29.74
2022-07-26T13:10:22.536Z,29.49
2022-07-26T13:12:41.960Z,29.10
2022-07-26T13:15:09.413Z,28.64
2022-07-26T13:17:36.192Z,28.30
2022-07-26T13:20:02.951Z,27.93
2022-07-26T13:22:29.719Z,27.62
2022-07-26T13:24:56.478Z,26.84
2022-07-26T13:27:23.122Z,27.64
2022-07-26T13:29:49.877Z,28.06
2022-07-26T13:32:17.422Z,27.65
2022-07-26T13:34:44.141Z,28.41
2022-07-26T13:37:10.827Z,28.65
2022-07-26T13:39:37.501Z,29.02
2022-07-26T13:42:04.377Z,27.97
2022-07-26T13:44:33.695Z,28.42
2022-07-26T13:47:02.182Z,28.64
2022-07-26T13:49:30.097Z,29.32
2022-07-26T13:52:00.013Z,29.62
2022-07-26T13:54:34.637Z,29.25
2022-07-26T13:57:07.798Z,29.64
2022-07-26T13:59:34.530Z,29.93
2022-07-26T14:02:01.360Z,30.30
2022-07-26T14:04:29.080Z,30.04
2022-07-26T14:06:56.090Z,30.36
2022-07-26T14:09:22.829Z,30.83
2022-07-26T14:11:49.562Z,31.05
2022-07-26T14:14:16.932Z,30.75
2022-07-26T14:16:43.968Z,30.57
2022-07-26T14:19:14.969Z,30.87
2022-07-26T14:21:47.472Z,30.85
2022-07-26T14:24:27.529Z,30.68
2022-07-26T14:26:58.883Z,31.00
2022-07-26T14:29:26.420Z,31.60
2022-07-26T14:31:53.423Z,31.42
2022-07-26T14:34:20.221Z,31.01
2022-07-26T14:36:46.979Z,31.13
2022-07-26T14:39:13.753Z,31.49
2022-07-26T14:41:40.665Z,31.40
2022-07-26T14:44:07.666Z,31.57
2022-07-26T14:46:34.521Z,31.97
2022-07-26T14:49:01.298Z,31.67
2022-07-26T14:51:28.281Z,32.53
2022-07-26T14:53:55.010Z,32.25
2022-07-26T14:56:22.038Z,32.59
2022-07-26T14:58:48.797Z,32.80
2022-07-26T15:01:16.598Z,32.72
2022-07-26T15:03:43.365Z,32.39
2022-07-26T15:06:10.117Z,32.53
2022-07-26T15:08:36.954Z,32.89
2022-07-26T15:11:05.590Z,32.80
2022-07-26T15:13:32.359Z,32.57
2022-07-26T15:15:59.258Z,33.52
2022-07-26T15:18:26.248Z,33.39
2022-07-26T15:20:53.360Z,33.08
2022-07-26T15:23:20.112Z,33.01
2022-07-26T15:25:48.777Z,33.10
2022-07-26T15:28:16.040Z,33.25
2022-07-26T15:30:42.866Z,33.37
2022-07-26T15:33:09.703Z,33.37
2022-07-26T15:35:37.186Z,33.13
2022-07-26T15:38:04.304Z,32.92
2022-07-26T15:40:31.088Z,33.21
2022-07-26T15:42:57.937Z,33.09
2022-07-26T15:45:25.035Z,33.22
2022-07-26T15:47:55.157Z,33.23
2022-07-26T15:50:25.098Z,33.33
2022-07-26T15:52:51.809Z,33.54
2022-07-26T15:55:20.722Z,33.27
2022-07-26T15:57:47.886Z,33.70
2022-07-26T16:00:15.831Z,34.17
2022-07-26T16:02:42.824Z,34.11
2022-07-26T16:05:10.384Z,34.40
2022-07-26T16:07:38.446Z,35.24
2022-07-26T16:10:05.774Z,35.35
2022-07-26T16:12:33.527Z,35.57
2022-07-26T16:15:00.627Z,35.31
2022-07-26T16:17:27.589Z,35.40
2022-07-26T16:19:54.283Z,35.10
2022-07-26T16:22:21.010Z,35.24
2022-07-26T16:24:48.082Z,34.94
2022-07-26T16:27:14.859Z,35.18
2022-07-26T16:29:41.620Z,36.58
2022-07-26T16:32:10.096Z,37.69
2022-07-26T16:34:37.376Z,38.03
2022-07-26T16:39:31.188Z,38.39
2022-07-26T16:41:59.837Z,38.24
2022-07-26T16:44:30.056Z,38.62
2022-07-26T16:46:57.337Z,38.15
2022-07-26T16:49:24.149Z,38.10
2022-07-26T16:51:51.019Z,38.78
2022-07-26T16:54:17.769Z,39.03
2022-07-26T16:56:44.563Z,39.11
2022-07-26T16:59:11.446Z,39.17
2022-07-26T17:01:38.607Z,39.33
2022-07-26T17:04:05.649Z,39.28
2022-07-26T17:06:32.535Z,40.23
2022-07-26T17:09:00.831Z,40.76
2022-07-26T17:11:27.856Z,41.53
2022-07-26T17:13:54.639Z,41.86
2022-07-26T17:16:24.623Z,42.23
2022-07-26T17:18:52.557Z,42.06
2022-07-26T17:21:19.283Z,42.11
2022-07-26T17:23:46.066Z,42.19
2022-07-26T17:26:12.973Z,42.31
2022-07-26T17:28:39.603Z,42.72
2022-07-26T17:31:06.537Z,42.81
2022-07-26T17:33:33.375Z,43.04
2022-07-26T17:36:03.283Z,42.80
2022-07-26T17:38:33.689Z,42.49
2022-07-26T17:41:01.010Z,42.84
2022-07-26T17:43:36.859Z,43.41
2022-07-26T17:46:04.333Z,43.25
2022-07-26T17:48:31.101Z,43.16
2022-07-26T17:50:57.834Z,43.55
2022-07-26T17:53:34.552Z,43.69
2022-07-26T17:56:02.407Z,43.71
2022-07-26T17:58:29.378Z,44.15
2022-07-26T18:00:56.142Z,44.70
2022-07-26T18:03:23.347Z,45.09
2022-07-26T18:05:51.022Z,45.43
2022-07-26T18:08:18.015Z,45.95
2022-07-26T18:10:50.505Z,45.96
2022-07-26T18:13:18.086Z,46.66
2022-07-26T18:15:45.491Z,46.21
2022-07-26T18:18:12.248Z,46.08
2022-07-26T18:20:39.387Z,46.71
2022-07-26T18:23:06.220Z,46.67
2022-07-26T18:25:32.966Z,47.10
2022-07-26T18:28:04.690Z,46.92
2022-07-26T18:30:33.932Z,46.96
2022-07-26T18:33:01.443Z,46.92
2022-07-26T18:35:28.520Z,47.10
2022-07-26T18:37:55.439Z,47.31
2022-07-26T18:40:23.713Z,46.97
2022-07-26T18:42:51.007Z,47.45
2022-07-26T18:45:17.837Z,47.52
2022-07-26T18:47:44.669Z,47.33
2022-07-26T18:50:16.921Z,47.46
2022-07-26T18:52:44.970Z,47.25
2022-07-26T18:55:13.840Z,47.99
2022-07-26T18:57:42.218Z,48.13
2022-07-26T19:00:11.909Z,48.17
2022-07-26T19:02:38.686Z,47.85
2022-07-26T19:05:06.083Z,47.93
2022-07-26T19:07:33.098Z,47.74
2022-07-26T19:10:00.363Z,47.56
2022-07-26T19:12:29.915Z,47.96
2022-07-26T19:14:56.701Z,47.79
2022-07-26T19:17:23.455Z,48.06
2022-07-26T19:19:50.178Z,48.14
2022-07-26T19:22:16.901Z,48.12
2022-07-26T19:24:43.888Z,48.06
2022-07-26T19:27:11.090Z,48.29
2022-07-26T19:29:38.115Z,47.94
2022-07-26T19:32:05.544Z,48.26
2022-07-26T19:34:32.431Z,48.28
2022-07-26T19:36:59.329Z,48.23
2022-07-26T19:39:35.009Z,48.24
2022-07-26T19:42:02.532Z,48.28
2022-07-26T19:44:29.484Z,48.12
2022-07-26T19:46:57.955Z,48.21
2022-07-26T19:49:25.148Z,48.43
2022-07-26T19:51:52.014Z,48.42
2022-07-26T19:54:18.737Z,48.47
2022-07-26T19:56:45.445Z,48.68
2022-07-26T19:59:12.630Z,48.55
2022-07-26T20:01:39.665Z,48.82
2022-07-26T20:04:06.532Z,48.59
2022-07-26T20:06:33.399Z,48.55
2022-07-26T20:09:00.140Z,48.69
2022-07-26T20:11:28.295Z,48.69
2022-07-26T20:13:55.643Z,49.03
2022-07-26T20:16:22.627Z,49.01
2022-07-26T20:18:49.315Z,49.15
2022-07-26T20:21:16.196Z,49.44
2022-07-26T20:23:42.959Z,49.17
2022-07-26T20:26:12.588Z,49.12
2022-07-26T20:28:39.378Z,49.05
2022-07-26T20:31:06.169Z,49.05
2022-07-26T20:33:33.092Z,49.26
2022-07-26T20:35:59.955Z,49.33
2022-07-26T20:38:26.649Z,49.28
2022-07-26T20:40:53.436Z,49.44
2022-07-26T20:43:22.442Z,49.59
2022-07-26T20:45:49.682Z,49.77
2022-07-26T20:48:16.470Z,49.65
2022-07-26T20:50:43.192Z,49.54
2022-07-26T20:53:10.001Z,49.75
2022-07-26T20:55:37.128Z,49.64
2022-07-26T20:58:03.991Z,50.13
2022-07-26T21:00:30.903Z,49.83
2022-07-26T21:02:59.464Z,50.06
2022-07-26T21:05:30.832Z,50.23
2022-07-26T21:08:00.014Z,50.39
2022-07-26T21:10:29.352Z,50.13
2022-07-26T21:13:01.075Z,50.55
2022-07-26T21:15:28.982Z,50.49
2022-07-26T21:17:56.126Z,50.82
2022-07-26T21:20:22.895Z,50.82
2022-07-26T21:22:49.694Z,50.98
2022-07-26T21:25:16.499Z,50.97
2022-07-26T21:27:43.939Z,50.79
2022-07-26T21:30:11.103Z,51.11
2022-07-26T21:32:37.873Z,51.17
2022-07-26T21:35:05.207Z,51.01
2022-07-26T21:37:32.107Z,51.26
2022-07-26T21:40:00.855Z,51.53
2022-07-26T21:42:28.051Z,51.85
2022-07-26T21:44:55.967Z,51.81
2022-07-26T21:47:23.323Z,51.88
2022-07-26T21:49:50.048Z,51.90
2022-07-26T21:52:16.791Z,51.99
2022-07-26T21:54:45.157Z,52.14
2022-07-26T21:57:11.874Z,52.47
2022-07-26T21:59:38.515Z,52.42
2022-07-26T22:02:05.313Z,52.20
2022-07-26T22:04:32.099Z,52.23
2022-07-26T22:06:58.842Z,52.02
2022-07-26T22:09:25.565Z,52.00
2022-07-26T22:11:53.057Z,52.07
2022-07-26T22:14:19.763Z,52.20
2022-07-26T22:16:47.840Z,53.10
2022-07-26T22:19:15.609Z,53.71
2022-07-26T22:21:42.374Z,54.06
2022-07-26T22:24:09.143Z,53.45
2022-07-26T22:26:36.257Z,53.43
2022-07-26T22:29:03.870Z,53.54
2022-07-26T22:31:30.730Z,53.36
2022-07-26T22:33:57.483Z,53.43
2022-07-26T22:36:24.169Z,53.42
2022-07-26T22:38:50.943Z,53.68
2022-07-26T22:41:17.831Z,53.35
2022-07-26T22:43:44.535Z,53.50
2022-07-26T22:46:11.408Z,53.04
2022-07-26T22:48:39.035Z,53.01
2022-07-26T22:51:07.222Z,53.04
2022-07-26T22:53:33.962Z,52.88
2022-07-26T22:56:00.654Z,52.68
2022-07-26T22:58:27.371Z,52.75
2022-07-26T23:00:54.158Z,52.93
2022-07-26T23:03:21.763Z,52.86
2022-07-26T23:05:50.538Z,53.05
2022-07-26T23:11:06.181Z,52.78
2022-07-26T23:13:32.986Z,52.53
2022-07-26T23:16:01.150Z,52.58
2022-07-26T23:18:28.952Z,52.68
2022-07-26T23:20:55.680Z,52.56
2022-07-26T23:23:22.386Z,52.49
2022-07-26T23:25:52.097Z,52.50
2022-07-26T23:28:24.792Z,52.44
2022-07-26T23:31:03.330Z,52.52
2022-07-26T23:33:50.943Z,52.78
2022-07-26T23:36:16.900Z,53.00
2022-07-26T23:38:43.601Z,53.36
2022-07-26T23:41:11.102Z,53.97
2022-07-26T23:43:37.895Z,54.28
2022-07-26T23:46:04.562Z,54.37
2022-07-26T23:48:31.312Z,54.47
2022-07-26T23:50:58.102Z,54.54
2022-07-26T23:53:26.769Z,54.84
2022-07-26T23:55:54.212Z,55.02
2022-07-26T23:58:21.166Z,55.05
